Terminal Aerodrome Forecast
Issued by NWS

Home | Current Version | Previous Version | Text Only | Print | Product List | Glossary On
Versions: 1 2 3 4 5 6 7 8 9 10 11 12 13 14 15 16 17
000
FTUS41 KPBZ 301134
TAFDUJ
TAF
KDUJ 301134Z 3012/3112 VRB04KT 2SM -SHRA BR BKN100
     FM301400 23006KT P6SM BKN070
     FM301800 25008KT P6SM VCSH BKN035
     FM310000 VRB03KT P6SM BKN050
     FM310800 VRB02KT 3SM BR SCT050=

USA.gov is the U.S. government's official web portal to all federal, state and local government web resources and services.